Cookeville, TN

6:39 PM CDT on April 30, 2017 (GMT -0500)
3D Farm | | Change Station

Elev 1022 ft 36.20 °N, 85.54 °W | Updated 20 seconds ago

Partly Cloudy
Partly Cloudy
66.4 °F
Feels Like 66.4 °F
N
1.1
Wind Variable Wind from East

Today
High -- | Low -- °F
--% Chance of Precip.
Yesterday
High -- | Low -- °F
Precip. -- in
Pressure 29.90 in
Visibility 10.0 miles
Clouds Scattered Clouds 9500 ft
Scattered Clouds 12000 ft
Dew Point 64 °F
Humidity 91%
Rainfall 0.54 in
Snow Depth Not available.
5:50 AM 7:29 PM
Waxing Crescent, 27% visible
METAR KSRB 302315Z AUTO VRB06G11KT 10SM SCT095 SCT120 19/18 A2990 RMK A01
Pressure 29.90 in
Visibility 10.0 miles
Clouds Scattered Clouds 9500 ft
Scattered Clouds 12000 ft
Dew Point 64 °F
Humidity 91%
Rainfall 0.54 in
Snow Depth Not available.
5:50 AM 7:29 PM
Waxing Crescent, 27% visible
METAR KSRB 302315Z AUTO VRB06G11KT 10SM SCT095 SCT120 19/18 A2990 RMK A01

Get Severe Weather Alerts

Thanks for signing up!

Be on the lookout for a verification email in your inbox.

You'll start receiving the daily forecast at 8 AM.

×

10-Day Weather Forecast

Almanac

Astronomy

Apr. 30, 2017 Rise Set
Actual Time
Civil Twilight
Nautical Twilight
Astronomical Twilight
Moon
Length of Visible Light
Length of Day
Tomorrow will be .
, % of the Moon is Illuminated

Today's Extremes

State Highs State Lows

Community

WunderPhotos

WunderBlog® & News

Nearby

Air Quality

  Air Quality AQ Index Pollutant
Not available.

Snow Depth

Station Depth Elevation

Earthquake Activity

City Distance Mag. Time & Date
Minimum magnitude displayed is 2.5.

Coastal Water Temperatures

Place Temperature

Stations

Nearby Weather Stations

Station Location Temp. Windchill Dew Point Humidity Wind Precip. Elev Updated Type
                   

Watches & Warnings

There are currently no watches in effect.